Time;durP1;ratioP1;P1;durP2;ratioP2;P2;SDS_P1;SDS_P2;PMS_P1;PMS_P2;Temp;Humidity;BMP_temperature;BMP_pressure;BME280_temperature;BME280_humidity;BME280_pressure;Samples;Min_cycle;Max_cycle;Signal;HPM_P1;HPM_P2
2021/07/02 00:02:21;;;;;;;8.40;6.03;;;14.00;99.90;;;14.69;92.57;98042.13;5220229;28;20710;-59
2021/07/02 00:04:54;;;;;;;6.65;5.68;;;13.90;99.90;;;14.64;91.74;98047.03;5217812;28;20198;-61
2021/07/02 00:07:27;;;;;;;7.05;6.32;;;13.80;99.90;;;14.54;91.82;98042.31;5208431;28;20218;-61
2021/07/02 00:10:02;;;;;;;6.97;6.03;;;13.80;99.90;;;14.59;92.29;98043.38;5214535;28;20204;-60
2021/07/02 00:12:36;;;;;;;7.07;6.10;;;13.80;99.90;;;14.58;92.26;98044.22;5213082;28;20240;-60
2021/07/02 00:15:12;;;;;;;6.60;5.95;;;13.80;99.90;;;14.53;92.02;98037.97;5213180;28;20193;-60
2021/07/02 00:17:45;;;;;;;6.57;5.93;;;13.70;99.90;;;14.53;91.63;98037.97;5212886;28;20192;-60
2021/07/02 00:20:18;;;;;;;6.85;6.15;;;13.70;99.90;;;14.51;92.66;98037.00;5217153;28;20296;-60
2021/07/02 00:22:51;;;;;;;7.18;6.40;;;13.80;99.90;;;14.58;92.82;98033.91;5224244;28;20760;-60
2021/07/02 00:25:25;;;;;;;7.03;6.40;;;13.80;99.90;;;14.57;93.05;98030.47;5209929;28;20200;-61
2021/07/02 00:27:59;;;;;;;7.57;6.20;;;13.80;99.90;;;14.53;92.92;98026.00;5221464;28;20217;-59
2021/07/02 00:30:32;;;;;;;7.30;6.45;;;13.80;99.90;;;14.52;92.81;98031.06;5220657;28;20202;-61
2021/07/02 00:33:05;;;;;;;6.95;6.25;;;13.80;99.90;;;14.54;92.51;98034.59;5213579;28;20218;-61
2021/07/02 00:35:40;;;;;;;7.00;6.40;;;13.80;99.90;;;14.50;92.25;98035.22;5217504;28;20683;-61
2021/07/02 00:38:13;;;;;;;6.78;6.18;;;13.80;99.90;;;14.54;93.19;98029.47;5213091;28;20195;-59
2021/07/02 00:40:48;;;;;;;7.00;6.10;;;13.80;99.90;;;14.53;92.92;98033.69;5220286;28;20583;-60
2021/07/02 00:43:21;;;;;;;6.70;6.10;;;13.80;99.90;;;14.55;92.74;98029.50;5223626;28;20691;-59
2021/07/02 00:45:54;;;;;;;7.20;6.60;;;13.80;99.90;;;14.56;92.70;98028.69;5219327;28;20291;-61
2021/07/02 00:48:27;;;;;;;8.18;6.90;;;13.80;99.90;;;14.57;92.65;98027.03;5207501;28;20197;-59
2021/07/02 00:51:00;;;;;;;6.72;6.13;;;13.80;99.90;;;14.55;92.43;98021.78;5210457;28;20200;-60
2021/07/02 00:53:33;;;;;;;6.78;6.18;;;13.80;99.90;;;14.55;92.23;98023.50;5219712;28;20194;-59
2021/07/02 00:56:09;;;;;;;9.05;5.95;;;13.80;99.90;;;14.49;92.84;98018.06;5218197;28;20676;-60
2021/07/02 00:58:43;;;;;;;7.57;6.80;;;13.80;99.90;;;14.45;92.87;98026.44;5219602;28;20192;-59
2021/07/02 01:01:17;;;;;;;6.65;5.72;;;13.70;99.90;;;14.47;93.09;98024.81;5215763;28;20223;-59
2021/07/02 01:03:50;;;;;;;6.53;5.97;;;13.70;99.90;;;14.51;92.42;98009.59;5212286;28;20190;-61
2021/07/02 01:06:24;;;;;;;6.85;6.25;;;13.70;99.90;;;14.51;93.17;98008.72;5224515;28;20220;-61
2021/07/02 01:08:57;;;;;;;7.70;6.07;;;13.80;99.90;;;14.56;92.83;98007.25;5204575;28;20202;-61
2021/07/02 01:11:32;;;;;;;7.00;6.40;;;13.80;99.90;;;14.54;92.29;98007.19;5215801;28;20229;-60
2021/07/02 01:14:06;;;;;;;7.15;6.55;;;13.80;99.90;;;14.51;92.37;98003.56;5206108;28;20608;-60
2021/07/02 01:16:40;;;;;;;7.45;6.18;;;13.70;99.90;;;14.51;92.37;98006.16;5210924;28;20303;-60
2021/07/02 01:19:15;;;;;;;8.23;6.25;;;13.70;99.90;;;14.48;92.38;98006.88;5217285;28;20225;-60
2021/07/02 01:21:53;;;;;;;7.00;5.82;;;13.70;99.90;;;14.50;92.56;98007.81;5220583;28;20221;-60
2021/07/02 01:24:26;;;;;;;8.05;6.32;;;13.70;99.90;;;14.47;92.20;98009.38;5214503;28;20197;-60
2021/07/02 01:27:00;;;;;;;7.22;6.03;;;13.70;99.90;;;14.48;92.26;98016.28;5205682;28;20228;-59
2021/07/02 01:29:33;;;;;;;6.93;6.18;;;13.60;99.90;;;14.45;92.90;98014.47;5214793;28;20198;-60
2021/07/02 01:32:08;;;;;;;6.82;6.13;;;13.60;99.90;;;14.34;92.38;98013.13;5215738;28;20209;-61
2021/07/02 01:34:42;;;;;;;6.13;5.53;;;13.60;99.90;;;14.30;93.50;98011.19;5221019;28;20202;-60
2021/07/02 01:37:16;;;;;;;6.53;5.93;;;13.60;99.90;;;14.34;93.33;98011.41;5219781;28;20550;-59
2021/07/02 01:39:50;;;;;;;7.43;5.60;;;13.60;99.90;;;14.30;92.95;98012.06;5219812;28;20196;-60
2021/07/02 01:42:23;;;;;;;7.22;6.50;;;13.60;99.90;;;14.32;93.72;98014.72;5205774;28;20213;-59
2021/07/02 01:44:56;;;;;;;6.38;5.75;;;13.60;99.90;;;14.33;93.73;98017.34;5216513;28;20211;-60
2021/07/02 01:47:29;;;;;;;7.78;6.97;;;13.60;99.90;;;14.33;93.05;98014.78;5209300;28;20228;-60
2021/07/02 01:50:03;;;;;;;7.63;6.90;;;13.60;99.90;;;14.33;93.59;98016.47;5216218;28;20201;-59
2021/07/02 01:52:38;;;;;;;6.85;6.25;;;13.50;99.90;;;14.25;93.43;98015.25;5207518;28;20590;-60
2021/07/02 01:55:13;;;;;;;7.13;6.28;;;13.50;99.90;;;14.24;93.14;98019.50;5209437;28;20656;-59
2021/07/02 01:57:46;;;;;;;7.30;6.60;;;13.50;99.90;;;14.22;93.71;98013.41;5208853;28;20191;-60
2021/07/02 02:00:19;;;;;;;6.57;5.97;;;13.50;99.90;;;14.26;92.83;98015.34;5208901;28;20587;-61
2021/07/02 02:02:52;;;;;;;7.18;5.97;;;13.40;99.90;;;14.25;92.88;98023.88;5209791;28;20236;-60
2021/07/02 02:05:25;;;;;;;6.30;5.78;;;13.50;99.90;;;14.22;92.29;98020.25;5216003;28;20194;-59
2021/07/02 02:07:59;;;;;;;6.63;5.75;;;13.50;99.90;;;14.13;92.17;98019.03;5207541;28;20300;-60
2021/07/02 02:10:33;;;;;;;7.15;6.32;;;13.30;99.90;;;14.14;92.01;98023.38;5218361;28;20197;-60
2021/07/02 02:13:06;;;;;;;8.20;6.38;;;13.40;99.90;;;14.13;92.44;98018.16;5215736;28;20225;-59
2021/07/02 02:15:39;;;;;;;7.55;6.72;;;13.40;99.90;;;14.13;93.12;98019.03;5215537;28;20202;-60
2021/07/02 02:18:12;;;;;;;8.93;6.70;;;13.50;99.90;;;14.17;93.51;98015.78;5221268;28;20243;-59
2021/07/02 02:20:47;;;;;;;6.40;5.82;;;13.50;99.90;;;14.20;92.80;98017.63;5217822;28;20296;-60
2021/07/02 02:23:21;;;;;;;8.40;7.45;;;13.50;99.90;;;14.21;93.56;98027.09;5210630;28;20220;-58
2021/07/02 02:25:54;;;;;;;7.03;6.32;;;13.50;99.90;;;14.22;92.78;98018.56;5222690;28;20196;-58
2021/07/02 02:28:27;;;;;;;7.18;6.47;;;13.50;99.90;;;14.26;92.99;98023.03;5220298;28;20584;-59
2021/07/02 02:31:00;;;;;;;7.63;6.43;;;13.50;99.90;;;14.27;93.96;98021.34;5213170;28;20193;-59
2021/07/02 02:33:33;;;;;;;7.55;6.25;;;13.50;99.90;;;14.28;92.54;98024.00;5212717;28;20244;-59
2021/07/02 02:36:07;;;;;;;6.78;6.15;;;13.50;99.90;;;14.30;93.01;98019.78;5224020;28;20575;-58
2021/07/02 02:38:42;;;;;;;7.30;6.60;;;13.50;99.90;;;14.29;92.99;98015.47;5217595;28;20289;-60
2021/07/02 02:41:15;;;;;;;7.15;6.45;;;13.50;99.90;;;14.30;92.81;98014.66;5213721;28;20197;-59
2021/07/02 02:43:48;;;;;;;8.32;6.75;;;13.50;99.90;;;14.30;92.52;98022.34;5211877;28;20224;-58
2021/07/02 02:46:21;;;;;;;6.85;6.25;;;13.60;99.90;;;14.31;93.41;98015.56;5212206;28;20205;-59
2021/07/02 02:48:55;;;;;;;6.82;6.15;;;13.50;99.90;;;14.37;92.21;98016.69;5218295;28;20217;-59
2021/07/02 02:51:28;;;;;;;6.72;6.07;;;13.50;99.90;;;14.36;91.32;98021.75;5220511;28;20587;-58
2021/07/02 02:54:03;;;;;;;6.63;6.00;;;13.50;99.90;;;14.27;92.26;98017.09;5212871;28;20189;-60
2021/07/02 02:56:36;;;;;;;6.95;6.05;;;13.40;99.90;;;14.20;92.04;98021.06;5211238;28;20197;-59
2021/07/02 02:59:09;;;;;;;8.68;6.20;;;13.40;99.90;;;14.13;91.50;98018.16;5215524;28;20201;-60
2021/07/02 03:01:42;;;;;;;7.20;6.50;;;13.30;99.90;;;14.05;92.20;98022.97;5221674;28;20213;-60
2021/07/02 03:04:15;;;;;;;6.80;6.20;;;13.30;99.90;;;14.06;93.05;98022.13;5210436;28;20209;-58
2021/07/02 03:06:48;;;;;;;7.45;6.75;;;13.40;99.90;;;14.08;93.43;98015.38;5209211;28;20572;-59
2021/07/02 03:09:22;;;;;;;6.78;6.25;;;13.30;99.90;;;14.09;92.88;98018.84;5215839;28;20218;-61
2021/07/02 03:11:55;;;;;;;6.93;6.07;;;13.30;99.90;;;14.10;93.75;98018.88;5226785;28;20212;-60
2021/07/02 03:14:28;;;;;;;7.22;6.53;;;13.40;99.90;;;14.10;92.81;98012.88;5216796;28;20197;-60
2021/07/02 03:17:01;;;;;;;6.82;5.85;;;13.30;99.90;;;14.08;93.04;98019.63;5215859;28;20199;-60
2021/07/02 03:19:34;;;;;;;7.07;5.88;;;13.30;99.90;;;14.04;92.70;98020.31;5221715;28;20194;-61
2021/07/02 03:22:07;;;;;;;6.78;6.00;;;13.30;99.90;;;14.06;92.91;98023.84;5210221;28;20310;-61
2021/07/02 03:24:42;;;;;;;6.85;6.15;;;13.30;99.90;;;14.04;92.55;98022.88;5219331;28;20199;-60
2021/07/02 03:27:16;;;;;;;7.03;6.28;;;13.20;99.90;;;14.04;92.76;98028.88;5215478;28;20193;-60
2021/07/02 03:29:49;;;;;;;6.68;6.07;;;13.20;99.90;;;14.00;92.62;98026.13;5217551;28;20190;-59
2021/07/02 03:32:22;;;;;;;8.65;6.70;;;13.20;99.90;;;13.97;92.21;98021.72;5216166;28;20213;-59
2021/07/02 03:34:55;;;;;;;6.93;6.22;;;13.20;99.90;;;13.93;93.07;98027.50;5222053;28;20202;-60
2021/07/02 03:37:28;;;;;;;7.78;6.57;;;13.20;99.90;;;13.90;92.75;98027.38;5215622;28;20202;-60
2021/07/02 03:40:05;;;;;;;7.10;6.43;;;13.10;99.90;;;13.86;92.79;98028.91;5213359;28;20194;-60
2021/07/02 03:42:38;;;;;;;7.80;6.13;;;13.10;99.90;;;13.84;92.67;98030.53;5222485;28;20227;-61
2021/07/02 03:45:12;;;;;;;6.47;5.93;;;13.00;99.90;;;13.83;93.34;98028.78;5209659;28;20221;-59
2021/07/02 03:47:46;;;;;;;8.13;6.72;;;13.00;99.90;;;13.81;91.84;98027.81;5215255;28;20567;-60
2021/07/02 03:50:19;;;;;;;8.20;6.53;;;13.00;99.90;;;13.73;91.99;98034.28;5217864;28;20193;-60
2021/07/02 03:52:52;;;;;;;7.13;6.53;;;12.90;99.90;;;13.71;92.17;98033.34;5216296;28;20217;-60
2021/07/02 03:55:26;;;;;;;6.88;6.20;;;12.90;99.90;;;13.67;92.14;98028.84;5211595;28;20217;-60
2021/07/02 03:58:04;;;;;;;6.78;6.18;;;12.90;99.90;;;13.63;92.26;98032.09;5214987;28;20288;-60
2021/07/02 04:00:37;;;;;;;7.18;6.47;;;12.90;99.90;;;13.64;91.90;98036.41;5217761;28;20205;-60
2021/07/02 04:03:11;;;;;;;7.00;6.40;;;12.80;99.90;;;13.61;92.36;98026.88;5220423;28;20566;-60
2021/07/02 04:05:45;;;;;;;7.25;6.65;;;12.80;99.90;;;13.61;91.96;98032.00;5208866;28;20193;-58
2021/07/02 04:08:18;;;;;;;7.68;6.97;;;12.80;99.90;;;13.59;92.59;98040.44;5215234;28;20218;-59
2021/07/02 04:10:52;;;;;;;8.13;7.15;;;12.90;99.90;;;13.54;94.38;98037.69;5214472;28;20198;-60
2021/07/02 04:13:25;;;;;;;7.45;6.80;;;12.80;99.90;;;13.54;94.15;98040.25;5219926;28;20768;-59
2021/07/02 04:15:59;;;;;;;8.52;6.88;;;12.80;99.90;;;13.55;92.97;98031.72;5209386;28;20206;-58
2021/07/02 04:18:32;;;;;;;8.00;7.07;;;12.80;99.90;;;13.54;92.59;98035.09;5221549;28;20197;-59
2021/07/02 04:21:05;;;;;;;8.20;6.20;;;12.80;99.90;;;13.51;92.62;98035.84;5219956;28;20204;-61
2021/07/02 04:23:38;;;;;;;7.60;6.90;;;12.80;99.90;;;13.51;93.39;98040.97;5224238;28;20205;-60
2021/07/02 04:26:13;;;;;;;7.47;6.78;;;12.70;99.90;;;13.51;93.16;98038.41;5223054;28;20201;-61
2021/07/02 04:28:46;;;;;;;7.25;6.45;;;12.70;99.90;;;13.51;92.53;98046.09;5220224;28;20316;-58
2021/07/02 04:31:19;;;;;;;7.22;5.72;;;12.70;99.90;;;13.52;93.03;98042.72;5215257;28;20209;-60
2021/07/02 04:33:52;;;;;;;6.93;6.32;;;12.80;99.90;;;13.60;93.12;98039.66;5218650;28;20225;-59
2021/07/02 04:36:25;;;;;;;7.38;6.63;;;12.80;99.90;;;13.62;92.90;98041.50;5219696;28;20190;-60
2021/07/02 04:38:59;;;;;;;8.10;6.38;;;12.80;99.90;;;13.69;92.92;98050.38;5222807;28;20205;-60
2021/07/02 04:41:33;;;;;;;8.20;6.82;;;12.90;99.90;;;13.87;91.13;98053.78;5212597;28;20223;-60
2021/07/02 04:44:06;;;;;;;10.00;7.07;;;12.90;99.90;;;13.97;91.37;98053.44;5220956;28;20604;-59
2021/07/02 04:46:40;;;;;;;6.93;6.32;;;13.00;99.90;;;14.01;90.92;98054.44;5212480;28;20197;-60
2021/07/02 04:49:13;;;;;;;7.47;6.43;;;13.10;99.90;;;14.28;92.60;98048.81;5212479;28;20222;-58
2021/07/02 04:51:47;;;;;;;10.18;6.53;;;13.40;99.90;;;14.50;90.04;98055.81;5213492;28;20214;-60
2021/07/02 04:54:20;;;;;;;6.78;6.10;;;13.60;99.90;;;14.92;89.04;98051.72;5213683;28;20189;-60
2021/07/02 04:56:55;;;;;;;9.07;6.47;;;13.90;99.90;;;15.49;86.13;98044.66;5209307;28;20577;-60
2021/07/02 04:59:30;;;;;;;6.93;6.25;;;14.30;99.90;;;16.09;82.59;98053.91;5215798;28;20200;-56
2021/07/02 05:02:03;;;;;;;8.05;5.90;;;14.80;99.90;;;16.57;80.71;98047.13;5211338;28;20219;-61
2021/07/02 05:04:36;;;;;;;7.25;6.35;;;15.30;99.90;;;17.07;77.59;98052.34;5215775;28;20198;-60
2021/07/02 05:07:11;;;;;;;7.15;5.80;;;15.60;99.90;;;17.42;74.75;98053.53;5214190;28;20204;-60
2021/07/02 05:09:44;;;;;;;6.78;5.45;;;15.90;99.90;;;17.61;73.99;98054.16;5212294;28;20220;-61
2021/07/02 05:12:18;;;;;;;6.25;5.22;;;16.00;99.90;;;17.49;73.89;98060.69;5216805;28;20213;-60
2021/07/02 05:14:51;;;;;;;6.35;5.85;;;15.80;99.90;;;17.32;75.23;98062.72;5214676;28;20211;-60
2021/07/02 05:17:24;;;;;;;7.13;6.43;;;15.90;99.90;;;17.28;75.63;98054.78;5223969;28;20653;-62
2021/07/02 05:19:58;;;;;;;7.10;6.40;;;15.80;99.90;;;17.08;76.38;98055.00;5214641;28;20623;-61
2021/07/02 05:22:34;;;;;;;6.95;6.35;;;15.80;99.90;;;16.98;76.67;98052.91;5215560;28;20221;-62
2021/07/02 05:25:08;;;;;;;7.45;6.10;;;15.60;99.90;;;16.82;78.16;98050.63;5213483;28;20279;-59
2021/07/02 05:27:43;;;;;;;6.80;6.10;;;15.50;99.90;;;16.82;77.87;98053.19;5205294;28;20193;-60
2021/07/02 05:30:17;;;;;;;6.78;6.07;;;15.40;99.90;;;16.78;78.69;98053.94;5211919;28;20209;-60
2021/07/02 05:32:51;;;;;;;6.40;5.85;;;15.60;99.90;;;17.36;77.17;98053.34;5216175;28;20219;-61
2021/07/02 05:35:24;;;;;;;6.63;6.05;;;15.90;99.90;;;17.44;75.83;98046.72;5219650;28;20198;-60
2021/07/02 05:37:57;;;;;;;7.95;6.35;;;16.20;99.90;;;18.05;74.03;98057.28;5221382;28;20203;-62
2021/07/02 05:40:31;;;;;;;7.47;5.90;;;16.50;99.90;;;18.56;72.33;98052.78;5208809;28;20198;-58
2021/07/02 05:43:05;;;;;;;7.10;6.30;;;17.00;99.90;;;19.10;70.13;98057.78;5216991;28;20244;-62
2021/07/02 05:45:40;;;;;;;7.30;6.60;;;17.40;99.90;;;19.53;68.49;98058.00;5210707;28;20215;-61
2021/07/02 05:48:17;;;;;;;7.38;6.68;;;17.80;99.90;;;19.98;66.51;98055.66;5213380;28;20225;-59
2021/07/02 05:50:50;;;;;;;7.45;6.75;;;18.20;99.90;;;20.51;64.18;98060.28;5215620;28;20227;-61
2021/07/02 05:53:23;;;;;;;7.40;6.70;;;18.60;99.90;;;21.03;61.96;98061.38;5215968;28;20213;-60
2021/07/02 05:55:56;;;;;;;7.22;6.53;;;19.00;99.90;;;21.02;61.07;98061.34;5217542;28;20189;-62
2021/07/02 05:58:30;;;;;;;7.22;6.53;;;18.80;99.90;;;20.73;62.24;98066.84;5215931;28;20194;-61
2021/07/02 06:01:04;;;;;;;6.68;6.18;;;18.40;99.90;;;20.41;62.93;98068.72;5212978;28;20189;-61
2021/07/02 06:03:37;;;;;;;7.10;6.40;;;18.10;99.90;;;20.27;64.00;98063.22;5218018;28;20207;-61
2021/07/02 06:06:23;;;;;;;7.18;6.38;;;18.00;99.90;;;20.11;64.72;98061.13;5210237;28;20200;-61
2021/07/02 06:08:57;;;;;;;7.05;6.45;;;17.90;99.90;;;20.07;64.12;98064.50;5210469;28;20653;-60
2021/07/02 06:11:30;;;;;;;7.13;6.53;;;17.80;99.90;;;19.94;64.51;98068.53;5211820;28;20897;-62
2021/07/02 06:14:04;;;;;;;7.60;6.88;;;17.60;99.90;;;19.94;65.09;98071.13;5213804;28;20202;-62
2021/07/02 06:16:37;;;;;;;7.70;7.00;;;17.60;99.90;;;19.78;66.12;98069.91;5210789;28;20205;-62
2021/07/02 06:19:10;;;;;;;7.38;6.68;;;17.80;99.90;;;19.90;66.28;98080.56;5205381;28;20328;-62
2021/07/02 06:21:44;;;;;;;7.15;6.55;;;17.90;99.90;;;20.04;65.56;98073.09;5209104;28;20229;-61
2021/07/02 06:24:17;;;;;;;7.40;6.65;;;18.00;99.90;;;20.10;65.48;98075.84;5212463;28;20281;-62
2021/07/02 06:26:50;;;;;;;7.82;7.10;;;18.10;99.90;;;20.32;64.91;98084.13;5215044;28;20198;-61
2021/07/02 06:29:25;;;;;;;7.18;6.50;;;18.40;99.90;;;20.67;63.62;98080.56;5208979;28;20225;-59
2021/07/02 06:31:58;;;;;;;8.63;7.82;;;18.70;99.90;;;20.88;62.74;98080.13;5208832;28;20590;-61
2021/07/02 06:34:31;;;;;;;8.15;7.40;;;18.80;99.90;;;21.03;61.34;98084.75;5211783;28;20198;-61
2021/07/02 06:37:05;;;;;;;7.40;6.70;;;18.80;99.90;;;21.20;60.59;98078.97;5217244;28;20189;-59
2021/07/02 06:39:38;;;;;;;7.15;6.55;;;18.90;99.90;;;21.35;60.65;98084.50;5208509;28;20209;-60
2021/07/02 06:42:11;;;;;;;7.72;7.03;;;19.10;99.90;;;21.77;59.63;98078.28;5210838;28;20229;-60
2021/07/02 06:44:45;;;;;;;7.43;6.82;;;19.40;99.90;;;22.21;58.57;98085.94;5220482;28;20209;-60
2021/07/02 06:47:18;;;;;;;7.60;6.90;;;19.90;99.90;;;22.35;56.93;98088.72;5217329;28;20301;-61
2021/07/02 06:49:51;;;;;;;7.10;6.50;;;20.00;99.90;;;22.27;57.23;98096.47;5219307;28;20598;-61
2021/07/02 06:52:24;;;;;;;6.78;6.07;;;20.00;99.90;;;22.44;57.02;98096.69;5221590;28;20221;-61
2021/07/02 06:54:57;;;;;;;7.68;6.85;;;20.20;99.90;;;23.12;54.74;98090.59;5212973;28;20209;-61
2021/07/02 06:57:31;;;;;;;6.68;6.07;;;20.70;99.90;;;23.52;53.41;98085.78;5222899;28;20208;-59
2021/07/02 07:00:08;;;;;;;6.55;5.95;;;21.10;99.90;;;24.09;51.87;98087.16;5220200;28;20207;-61
2021/07/02 07:02:42;;;;;;;8.15;6.68;;;21.60;99.90;;;24.77;50.12;98090.19;5217604;28;20582;-61
2021/07/02 07:05:17;;;;;;;6.60;6.00;;;22.00;99.90;;;25.02;49.06;98086.81;5220373;28;20295;-59
2021/07/02 07:07:50;;;;;;;6.75;6.15;;;22.30;99.90;;;25.44;48.16;98085.22;5219477;28;20196;-61
2021/07/02 07:10:23;;;;;;;6.57;5.95;;;22.70;99.90;;;25.81;47.32;98085.19;5224142;28;20224;-61
2021/07/02 07:12:56;;;;;;;6.85;6.15;;;22.90;99.90;;;25.94;47.06;98087.00;5233870;28;20220;-61
2021/07/02 07:15:35;;;;;;;7.07;6.38;;;23.10;99.90;;;26.37;46.48;98086.06;5221539;28;20209;-61
2021/07/02 07:18:08;;;;;;;7.05;6.07;;;23.30;99.90;;;26.55;44.97;98087.78;5224084;28;20206;-61
2021/07/02 07:20:41;;;;;;;6.15;5.55;;;23.40;99.90;;;26.61;44.82;98078.19;5225446;28;20215;-61
2021/07/02 07:23:15;;;;;;;6.20;5.68;;;23.40;99.90;;;26.50;44.73;98088.69;5208740;28;20224;-61
2021/07/02 07:25:48;;;;;;;6.72;5.68;;;23.40;99.90;;;26.59;44.82;98086.94;5215108;28;20212;-61
2021/07/02 07:28:21;;;;;;;6.68;6.07;;;23.70;99.90;;;26.94;42.39;98085.00;5217773;28;20204;-61
2021/07/02 07:30:56;;;;;;;5.90;5.38;;;23.90;98.90;;;26.89;43.74;98081.53;5215556;28;20225;-61
2021/07/02 07:33:31;;;;;;;6.05;5.55;;;24.00;99.80;;;26.95;42.57;98081.50;5212718;28;20582;-62
2021/07/02 07:36:06;;;;;;;6.10;5.60;;;24.10;98.90;;;26.94;43.44;98089.41;5207933;28;20323;-61
2021/07/02 07:38:39;;;;;;;6.00;5.50;;;24.30;98.70;;;27.40;42.18;98079.53;5218896;28;20295;-62
2021/07/02 07:41:12;;;;;;;6.75;6.15;;;24.70;98.10;;;27.34;42.21;98089.22;5212764;28;20211;-62
2021/07/02 07:43:46;;;;;;;6.28;5.68;;;24.90;97.20;;;27.60;40.95;98091.66;5212890;28;20684;-61
2021/07/02 07:46:21;;;;;;;6.28;5.70;;;25.10;96.50;;;27.39;41.89;98092.69;5211462;28;20247;-62
2021/07/02 07:48:55;;;;;;;6.18;5.60;;;24.80;97.10;;;27.13;42.19;98093.69;5209810;28;20695;-61
2021/07/02 07:51:34;;;;;;;6.82;6.25;;;24.60;97.30;;;27.27;42.17;98092.75;5212594;28;20236;-60
2021/07/02 07:54:07;;;;;;;6.32;5.72;;;24.50;97.30;;;27.48;41.61;98084.75;5213031;28;20224;-61
2021/07/02 07:56:49;;;;;;;5.97;5.35;;;24.60;97.30;;;27.73;40.32;98077.56;5216266;28;20197;-61
2021/07/02 07:59:26;;;;;;;6.40;5.90;;;25.00;95.90;;;27.53;39.05;98072.47;5214736;28;20210;-62
2021/07/02 08:02:00;;;;;;;5.68;5.18;;;24.90;94.90;;;26.34;41.52;98081.69;5211083;28;20625;-61
2021/07/02 08:04:34;;;;;;;5.22;4.82;;;23.90;96.20;;;26.15;42.43;98079.97;5214639;28;20243;-62
2021/07/02 08:07:07;;;;;;;5.85;5.35;;;23.50;96.80;;;27.02;41.54;98071.00;5210809;28;20239;-61
2021/07/02 08:09:40;;;;;;;6.35;5.82;;;24.10;96.70;;;27.30;39.74;98072.63;5212240;28;20571;-62
2021/07/02 08:12:14;;;;;;;6.57;5.18;;;24.50;95.40;;;27.21;39.55;98072.66;5230131;28;20220;-62
2021/07/02 08:14:48;;;;;;;5.90;5.40;;;24.60;95.00;;;27.39;39.76;98079.56;5212581;28;20211;-62
2021/07/02 08:17:23;;;;;;;6.68;5.97;;;24.40;94.90;;;27.87;37.91;98076.59;5207309;28;20216;-62
2021/07/02 08:19:56;;;;;;;5.68;5.28;;;24.70;93.90;;;28.56;37.02;98079.47;5217466;28;20207;-61
2021/07/02 08:22:29;;;;;;;5.80;5.20;;;25.50;93.40;;;28.55;37.18;98075.06;5217485;28;20715;-62
2021/07/02 08:25:04;;;;;;;6.38;5.88;;;25.50;93.30;;;28.24;37.68;98085.00;5206198;28;20210;-60
2021/07/02 08:30:24;;;;;;;6.28;5.78;;;25.00;93.40;;;27.08;39.21;98084.09;5209313;28;20217;-61
2021/07/02 08:32:58;;;;;;;6.03;5.35;;;24.30;94.10;;;26.58;41.00;98098.28;5220215;28;20216;-61
2021/07/02 08:35:31;;;;;;;6.55;6.05;;;23.70;95.60;;;25.96;42.69;98094.88;5211273;28;20615;-61
2021/07/02 08:38:05;;;;;;;6.22;5.72;;;23.00;96.80;;;25.54;44.58;98086.06;5219222;28;20203;-60
2021/07/02 08:40:38;;;;;;;7.50;5.72;;;22.80;98.50;;;25.63;44.52;98091.31;5217863;28;20211;-61
2021/07/02 08:43:11;;;;;;;6.60;6.00;;;23.40;97.60;;;25.93;44.05;98100.09;5213314;28;20226;-62
2021/07/02 08:45:46;;;;;;;5.85;5.45;;;24.00;96.60;;;26.33;42.57;98090.44;5207987;28;20207;-61
2021/07/02 08:48:22;;;;;;;5.82;5.43;;;24.70;94.40;;;26.32;41.98;98093.06;5218376;28;20265;-61
2021/07/02 08:50:56;;;;;;;6.22;5.63;;;24.50;94.30;;;26.06;41.98;98102.69;5226102;28;20207;-62
2021/07/02 08:53:29;;;;;;;6.15;5.55;;;24.00;94.80;;;25.69;42.48;98095.69;5214126;28;20253;-61
2021/07/02 08:56:03;;;;;;;6.03;5.50;;;23.40;95.60;;;25.13;44.42;98099.94;5217639;28;20200;-61
2021/07/02 08:58:37;;;;;;;5.88;5.22;;;23.10;96.80;;;24.87;43.89;98107.69;5213256;28;20193;-60
2021/07/02 09:01:38;;;;;;;5.82;5.32;;;23.20;95.30;;;24.50;44.09;98104.88;5217748;28;20196;-62
2021/07/02 09:04:21;;;;;;;5.28;4.88;;;23.00;95.20;;;24.32;44.58;98112.56;5208073;28;20296;-61
2021/07/02 09:07:08;;;;;;;5.18;4.78;;;22.60;95.70;;;24.23;44.81;98111.63;5213327;28;20211;-61
2021/07/02 09:09:54;;;;;;;6.00;5.47;;;22.60;95.90;;;24.53;45.34;98115.34;5221603;28;20201;-61
2021/07/02 09:12:30;;;;;;;5.43;4.93;;;23.10;95.90;;;24.84;45.05;98115.50;5224942;28;20227;-62
2021/07/02 09:15:10;;;;;;;6.00;5.50;;;23.60;95.70;;;25.17;43.10;98110.41;5219263;28;20591;-61
2021/07/02 09:17:56;;;;;;;6.30;5.68;;;24.00;94.10;;;25.08;42.83;98110.38;5218556;28;20236;-62
2021/07/02 09:20:36;;;;;;;6.18;5.70;;;24.20;93.40;;;24.90;43.56;98107.69;5202177;28;20209;-61
2021/07/02 09:23:12;;;;;;;5.95;5.32;;;23.70;93.90;;;24.71;43.90;98120.66;5211490;28;20213;-61
2021/07/02 09:25:51;;;;;;;5.78;5.07;;;23.10;95.20;;;24.34;43.72;98116.94;5217088;28;20556;-61
2021/07/02 09:28:31;;;;;;;5.45;5.00;;;22.70;94.70;;;24.18;44.09;98113.38;5211134;28;20247;-61
2021/07/02 09:31:04;;;;;;;5.82;5.32;;;22.40;95.40;;;24.26;44.89;98109.03;5230480;28;20350;-62
2021/07/02 09:33:38;;;;;;;5.47;5.07;;;22.50;96.00;;;24.33;44.76;98109.09;5217037;28;20235;-61
2021/07/02 09:36:17;;;;;;;5.90;5.40;;;22.70;95.50;;;24.07;45.51;98107.19;5217797;28;20288;-61
2021/07/02 09:38:52;;;;;;;5.90;5.40;;;22.80;95.60;;;23.86;45.68;98115.72;5214136;28;20196;-62
2021/07/02 09:41:33;;;;;;;6.07;5.57;;;22.60;96.00;;;23.45;47.43;98120.53;5207220;28;20205;-60
2021/07/02 09:44:11;;;;;;;5.70;5.28;;;22.20;96.50;;;23.27;46.43;98116.88;5214083;28;20196;-61
2021/07/02 09:46:44;;;;;;;5.80;5.32;;;22.00;96.30;;;23.22;45.99;98118.53;5207750;28;20207;-61
2021/07/02 09:49:26;;;;;;;6.00;5.40;;;21.80;95.90;;;23.35;46.81;98111.72;5206176;28;20570;-61
2021/07/02 09:52:09;;;;;;;5.80;5.30;;;22.00;96.30;;;23.65;45.38;98108.53;5208342;28;20224;-60
2021/07/02 09:55:03;;;;;;;5.88;5.40;;;22.50;95.10;;;23.88;45.13;98107.91;5207051;28;20250;-61
2021/07/02 09:57:36;;;;;;;6.13;5.63;;;22.60;95.00;;;24.16;45.57;98106.38;5214515;28;20212;-60
2021/07/02 10:00:12;;;;;;;5.40;5.00;;;23.10;94.80;;;24.07;42.79;98107.19;5219026;28;20199;-61
2021/07/02 10:02:54;;;;;;;5.75;5.22;;;22.90;93.00;;;23.96;42.72;98106.22;5203693;28;20217;-61
2021/07/02 10:05:28;;;;;;;5.82;5.32;;;22.80;93.20;;;24.04;42.93;98102.81;5219451;28;20209;-61
2021/07/02 10:08:05;;;;;;;6.07;5.57;;;22.90;92.80;;;24.34;43.33;98106.47;5207762;28;20193;-61
2021/07/02 10:10:38;;;;;;;5.57;5.10;;;23.20;93.30;;;24.15;41.38;98102.91;5213101;28;20203;-60
2021/07/02 10:13:12;;;;;;;5.40;4.95;;;23.20;92.10;;;24.20;41.05;98098.56;5215315;28;20226;-61
2021/07/02 10:15:45;;;;;;;5.65;5.25;;;23.00;91.90;;;24.22;41.36;98112.50;5218809;28;20201;-61
2021/07/02 10:18:19;;;;;;;5.90;5.40;;;23.10;91.90;;;24.29;42.24;98113.41;5203164;28;20709;-60
2021/07/02 10:20:54;;;;;;;5.63;5.22;;;22.90;92.90;;;24.21;43.11;98105.53;5202434;28;20216;-61
2021/07/02 10:23:33;;;;;;;6.47;5.88;;;22.70;93.60;;;24.16;42.47;98114.22;5203352;28;20311;-60
2021/07/02 10:26:08;;;;;;;6.43;5.70;;;22.70;93.30;;;24.23;43.43;98110.75;5213882;28;20278;-60
2021/07/02 10:28:43;;;;;;;6.03;5.53;;;22.90;93.20;;;24.26;43.34;98109.03;5214548;28;20189;-61
2021/07/02 10:31:17;;;;;;;5.95;5.43;;;22.80;93.00;;;24.16;44.59;98112.47;5213813;28;20198;-60
2021/07/02 10:33:55;;;;;;;6.32;5.82;;;23.00;94.20;;;24.13;43.52;98112.44;5213051;28;20196;-61
2021/07/02 10:36:34;;;;;;;6.28;5.70;;;23.00;93.20;;;24.10;44.93;98122.88;5212838;28;20676;-61
2021/07/02 10:39:29;;;;;;;6.65;6.05;;;23.00;94.40;;;24.23;44.47;98113.38;5220883;28;20243;-61
2021/07/02 10:42:08;;;;;;;6.28;5.43;;;23.20;94.20;;;24.33;44.56;98114.34;5213320;28;20343;-60
2021/07/02 10:45:10;;;;;;;6.82;6.05;;;23.40;93.90;;;24.52;42.90;98107.50;5224097;28;20208;-62
2021/07/02 10:47:54;;;;;;;6.10;5.60;;;23.50;92.90;;;24.41;43.51;98123.06;5224979;28;20566;-61
2021/07/02 10:50:43;;;;;;;6.30;5.80;;;23.30;93.10;;;24.20;44.07;98110.75;5215948;28;20563;-60
2021/07/02 10:53:31;;;;;;;6.13;5.63;;;23.20;93.20;;;24.25;44.58;98122.97;5221137;28;20225;-61
2021/07/02 10:56:28;;;;;;;6.60;6.10;;;23.30;93.90;;;24.25;43.57;98125.59;5229492;28;20200;-61